Overview Statistics Trail Chart Weather Telemetry Raw packets
 

This is the latest recevied weather packets stored in our database for station/object K5FEP. If no packets are shown the sender has not sent any weather packets the latest 10 day(s).

<< 36 37 38 39 40 41 42 >>
Time Temp. Humidity Pressure Rain* Wind** Luminosity Snow
1788390515 33.33° C 50% 1016.1 hPa 0 mm - 49 W/m² -
1788390214 33.33° C 49% 1016 hPa 0 mm - 43 W/m² -
1788389914 33.89° C 48% 1016 hPa 0 mm - 37 W/m² -
1788389609 33.89° C 47% 1016.3 hPa 0 mm - 33 W/m² -
1788389307 33.89° C 46% 1015.9 hPa 0 mm - 34 W/m² -
1788389003 33.89° C 46% 1016.1 hPa 0 mm - 35 W/m² -
1788388699 34.44° C 45% 1016.2 hPa 0 mm - 33 W/m² -
1788388394 34.44° C 44% 1016 hPa 0 mm - 33 W/m² -
1788388093 35° C 43% 1016 hPa 0 mm - 35 W/m² -
1788387793 35° C 43% 1016 hPa 0 mm - 44 W/m² -
1788387493 35° C 42% 1016 hPa 0 mm - 56 W/m² -
1788387192 35° C 42% 1015.9 hPa 0 mm - 65 W/m² -
1788386888 35.56° C 41% 1016 hPa 0 mm - 83 W/m² -
1788386587 35.56° C 40% 1016 hPa 0 mm - 93 W/m² -
1788386283 36.11° C 41% 1015.7 hPa 0 mm - 88 W/m² -
1788386000 36.11° C 40% 1015.6 hPa 0 mm - 93 W/m² -
1788385674 37.22° C 38% 1015.5 hPa 0 mm - 121 W/m² -
1788385373 37.78° C 37% 1015.7 hPa 0 mm - 137 W/m² -
1788385068 37.78° C 37% 1015.4 hPa 0 mm - 283 W/m² -
1788384768 38.33° C 34% 1015.4 hPa 0 mm - 309 W/m² -
1788384467 38.33° C 33% 1015.5 hPa 0 mm - 323 W/m² -
1788384164 37.78° C 35% 1015.4 hPa 0 mm - 342 W/m² -
1788383860 37.78° C 35% 1015.7 hPa 0 mm - 358 W/m² -
1788383556 37.22° C 36% 1015.4 hPa 0 mm - 357 W/m² -
1788383256 37.22° C 36% 1015.5 hPa 0 mm - 270 W/m² -

* Rain latest hour (hover to see other rain measurements)
** Current wind speed in m/s (hover to see current wind gust speed)